Girua, Brazil
Current Conditions -  °F | °C
As of 4:00 AM on Thursday 29 Jan 2015 (Local Time) from SARP Reporting Station
Overcast Overcast  
Wind Chill: 73°   Ceiling: 5000
Heat Index: 73°   Visibility: 6mi
Dew Point: 72°   Wind: 3mph
Humidity: 94%   Direction: 20°NNE
Pressure: 29.8"   Gusts: NA
Location:  28.03°S, 54.35°W
Report Text: SARP 290600Z 02003KT 9999 SCT008 FEW045CBOVC050 23/22 Q1009 RETSRA
Loading
Personal Weather Stations






























Interactive Weather Map New forecast layout! Learn more

10-Day Weather Forecast

Advertisements
Track Severe Weather on mobile